Kirksville Regional Airport Kirksville US
ICAO: KIRK
IATA: IRK
Category: Medium
Scheduled Services: Yes

Elevation: 966 ft
TransAlt. 18000 ft.

Airport Communications:
ASOS:121.125
KANSAS CITY CNTR:132.6
COLUMBIA RDO:122.2
CTAF/UNICOM:122.8

KIRK Zoom In..

Runways:

(A) RW 09 length 1370 ft width 100 ft
---- / hdg 88

(B) RW 18 length 6005 ft width 100 ft
---- / hdg 177

(C) RW 27 length 1370 ft width 100 ft
---- / hdg 268

(D) RW 36 length 6005 ft width 100 ft
ILS 111.50 / hdg 357

Location; KIRK
Day. 19 / Time. 19.55 Zulu
* Altimeter: 30.45
* Temperature: 13° c. 55.4°f.
* Wind from: 020° Speed 08 kn.
Dewpoint: -01° c.
Visibility: 10 Statute Miles.
Clouds: Clear (automated report).

KIRK 191955Z AUTO 02008KT 10SM CLR 13/M01 A3045 RMK AO2 SLP320 T01281006


Wind From 020°
Speed 08 kn.

  YouTube Music Video
 
jpsmedia.com for Web Design  worldairports.se 2018   terms of use